Time;durP1;ratioP1;P1;durP2;ratioP2;P2;SDS_P1;SDS_P2;PMS_P1;PMS_P2;Temp;Humidity;BMP_temperature;BMP_pressure;BME280_temperature;BME280_humidity;BME280_pressure;Samples;Min_cycle;Max_cycle;Signal;HPM_P1;HPM_P2
2022/06/09 08:29:35;;;;;;;9.30;2.25;;;;;;;;;;5091638;28;20618;-67
2022/06/09 08:32:01;;;;;;;10.23;2.90;;;;;;;;;;5098286;28;20531;-68
2022/06/09 08:34:27;;;;;;;7.53;2.15;;;;;;;;;;5098534;28;20019;-68
2022/06/09 08:36:54;;;;;;;6.95;2.58;;;;;;;;;;5092426;28;20028;-68
2022/06/09 08:39:20;;;;;;;9.35;2.63;;;;;;;;;;5104017;28;20020;-68
2022/06/09 08:42:08;;;;;;;7.18;2.22;;;;;;;;;;5092767;28;20027;-68
2022/06/09 08:44:50;;;;;;;9.88;2.92;;;;;;;;;;5094901;28;20496;-68
2022/06/09 08:47:25;;;;;;;6.85;2.28;;;;;;;;;;5103776;28;20055;-68
2022/06/09 08:50:07;;;;;;;9.23;2.88;;;;;;;;;;5087337;28;20028;-68
2022/06/09 08:52:49;;;;;;;9.82;3.13;;;;;;;;;;5099156;28;20361;-68
2022/06/09 08:55:38;;;;;;;8.05;2.40;;;;;;;;;;5090206;28;20576;-68
2022/06/09 08:58:13;;;;;;;12.77;2.67;;;;;;;;;;5098862;28;20025;-68
2022/06/09 09:00:44;;;;;;;6.28;2.03;;;;;;;;;;5099832;28;20032;-68
2022/06/09 09:03:19;;;;;;;5.50;1.95;;;;;;;;;;5090260;28;20033;-68
2022/06/09 09:05:54;;;;;;;5.78;1.60;;;;;;;;;;5099465;28;20036;-69
2022/06/09 09:08:20;;;;;;;6.25;2.13;;;;;;;;;;5097153;28;20024;-66
2022/06/09 09:10:52;;;;;;;11.68;2.55;;;;;;;;;;5092713;28;20039;-67
2022/06/09 09:13:30;;;;;;;7.65;1.98;;;;;;;;;;5098390;28;20035;-68
2022/06/09 09:16:07;;;;;;;8.00;1.83;;;;;;;;;;5093389;28;20031;-67
2022/06/09 09:18:44;;;;;;;7.70;1.90;;;;;;;;;;5094462;28;20024;-67
2022/06/09 09:21:36;;;;;;;7.40;2.50;;;;;;;;;;5079748;28;20036;-67
2022/06/09 09:24:30;;;;;;;4.63;1.70;;;;;;;;;;5068990;28;20047;-68
2022/06/09 09:27:14;;;;;;;7.20;1.80;;;;;;;;;;5068359;28;20390;-68
2022/06/09 09:29:47;;;;;;;10.20;2.25;;;;;;;;;;5072868;28;20020;-67
2022/06/09 09:32:21;;;;;;;7.75;2.17;;;;;;;;;;5085377;28;20362;-67
2022/06/09 09:34:49;;;;;;;6.80;2.00;;;;;;;;;;5100186;28;20024;-67
2022/06/09 09:37:33;;;;;;;6.70;1.70;;;;;;;;;;5083787;28;20102;-68
2022/06/09 09:40:10;;;;;;;5.75;2.35;;;;;;;;;;5090846;28;20019;-68
2022/06/09 09:42:38;;;;;;;10.50;2.08;;;;;;;;;;5080419;28;20020;-68
2022/06/09 09:45:09;;;;;;;8.20;2.33;;;;;;;;;;5089044;28;20032;-67
2022/06/09 09:47:46;;;;;;;11.20;2.00;;;;;;;;;;5060738;28;20028;-67
2022/06/09 09:50:50;;;;;;;5.60;1.80;;;;;;;;;;5083652;28;20024;-67
2022/06/09 09:53:19;;;;;;;9.25;2.30;;;;;;;;;;5071691;28;20044;-75
2022/06/09 09:56:17;;;;;;;7.00;2.03;;;;;;;;;;5050247;28;20032;-76
2022/06/09 09:58:49;;;;;;;7.57;1.85;;;;;;;;;;5041859;28;20382;-77
2022/06/09 10:10:15;;;;;;;7.38;2.00;;;;;;;;;;5113089;28;20016;-76
2022/06/09 10:12:41;;;;;;;10.32;2.42;;;;;;;;;;5114701;28;20034;-76
2022/06/09 10:15:10;;;;;;;7.50;2.00;;;;;;;;;;5109479;28;20469;-76
2022/06/09 10:18:02;;;;;;;11.48;2.22;;;;;;;;;;5091099;28;20488;-76
2022/06/09 10:20:34;;;;;;;10.20;2.30;;;;;;;;;;5078849;28;20040;-76
2022/06/09 10:23:06;;;;;;;7.15;1.92;;;;;;;;;;5069167;28;20037;-76
2022/06/09 10:25:43;;;;;;;8.77;2.15;;;;;;;;;;5069211;28;20473;-77
2022/06/09 10:28:19;;;;;;;6.85;2.28;;;;;;;;;;5070246;28;20033;-76
2022/06/09 10:30:50;;;;;;;7.20;1.98;;;;;;;;;;5070391;28;20039;-77
2022/06/09 10:34:15;;;;;;;7.22;2.13;;;;;;;;;;5070491;28;20048;-77
2022/06/09 10:37:17;;;;;;;10.65;2.63;;;;;;;;;;4987857;28;20049;-76
2022/06/09 10:39:49;;;;;;;8.75;2.63;;;;;;;;;;4939873;28;20035;-77
2022/06/09 10:42:40;;;;;;;7.20;2.35;;;;;;;;;;5058151;28;20486;-77
2022/06/09 10:45:26;;;;;;;7.83;2.70;;;;;;;;;;5071221;28;20095;-76
2022/06/09 10:57:13;;;;;;;8.05;2.45;;;;;;;;;;5074278;28;20029;-77
2022/06/09 11:00:04;;;;;;;10.13;3.22;;;;;;;;;;5082020;28;20039;-77
2022/06/09 11:02:32;;;;;;;9.20;2.80;;;;;;;;;;5083512;28;20045;-77
2022/06/09 11:04:59;;;;;;;9.48;2.10;;;;;;;;;;5079311;28;20032;-76
2022/06/09 11:07:46;;;;;;;11.57;2.00;;;;;;;;;;5079054;28;20399;-77
2022/06/09 11:10:18;;;;;;;7.05;2.30;;;;;;;;;;5073205;28;20036;-77
2022/06/09 11:13:16;;;;;;;7.00;2.10;;;;;;;;;;5084895;28;20485;-77
2022/06/09 11:15:56;;;;;;;9.00;2.40;;;;;;;;;;5085237;28;20106;-77
2022/06/09 11:18:28;;;;;;;7.00;2.30;;;;;;;;;;5074335;28;20020;-77
2022/06/09 11:21:03;;;;;;;8.27;2.10;;;;;;;;;;5085672;28;20031;-77
2022/06/09 11:23:42;;;;;;;7.50;1.85;;;;;;;;;;5078562;28;20051;-76
2022/06/09 11:26:24;;;;;;;8.65;1.95;;;;;;;;;;5076140;28;20473;-77
2022/06/09 11:29:09;;;;;;;8.30;1.85;;;;;;;;;;5083644;28;20047;-77
2022/06/09 11:31:53;;;;;;;5.25;1.80;;;;;;;;;;5066028;28;20539;-77
2022/06/09 11:34:35;;;;;;;5.07;1.55;;;;;;;;;;5080141;28;20028;-77
2022/06/09 11:37:13;;;;;;;4.32;1.63;;;;;;;;;;5081900;28;20259;-77
2022/06/09 11:39:49;;;;;;;4.72;1.60;;;;;;;;;;5084779;28;20039;-77
2022/06/09 11:42:15;;;;;;;8.52;2.10;;;;;;;;;;5073860;28;20032;-77
2022/06/09 11:44:43;;;;;;;6.53;1.92;;;;;;;;;;5084677;28;20084;-77
2022/06/09 11:47:12;;;;;;;6.05;2.00;;;;;;;;;;5080135;28;20020;-78
2022/06/09 11:49:44;;;;;;;7.00;2.25;;;;;;;;;;5076493;28;20393;-77
2022/06/09 11:52:16;;;;;;;8.60;2.13;;;;;;;;;;5087244;28;20024;-77
2022/06/09 11:54:54;;;;;;;4.57;1.67;;;;;;;;;;5076205;28;20028;-77
2022/06/09 11:57:41;;;;;;;5.18;1.70;;;;;;;;;;5079247;28;20025;-77
2022/06/09 12:00:19;;;;;;;5.97;1.90;;;;;;;;;;5087203;28;20024;-77
2022/06/09 12:03:01;;;;;;;6.95;1.90;;;;;;;;;;5076606;28;20477;-77
2022/06/09 12:05:49;;;;;;;6.68;2.05;;;;;;;;;;5078208;28;20024;-77
2022/06/09 12:08:31;;;;;;;7.72;2.10;;;;;;;;;;5086849;28;20377;-77
2022/06/09 12:12:08;;;;;;;10.15;2.45;;;;;;;;;;5078536;28;20019;-78
2022/06/09 12:14:37;;;;;;;6.32;2.10;;;;;;;;;;4981914;28;20052;-76
2022/06/09 12:17:20;;;;;;;6.10;2.03;;;;;;;;;;5001898;28;20041;-76
2022/06/09 12:19:55;;;;;;;8.98;2.10;;;;;;;;;;5027966;28;20037;-76
2022/06/09 12:22:39;;;;;;;8.93;2.22;;;;;;;;;;5086435;28;20025;-76
2022/06/09 12:25:07;;;;;;;5.90;1.95;;;;;;;;;;5079280;28;20028;-77
2022/06/09 12:27:36;;;;;;;8.43;2.10;;;;;;;;;;5086509;28;20043;-77
2022/06/09 12:30:02;;;;;;;7.75;2.08;;;;;;;;;;5073381;28;20473;-77
2022/06/09 12:32:52;;;;;;;6.82;2.10;;;;;;;;;;5086109;28;20036;-77
2022/06/09 12:35:26;;;;;;;7.37;2.33;;;;;;;;;;5080998;28;20031;-78
2022/06/09 12:37:56;;;;;;;8.30;1.70;;;;;;;;;;5074778;28;20029;-77
2022/06/09 12:40:26;;;;;;;4.57;1.70;;;;;;;;;;5086696;28;20024;-76
2022/06/09 12:42:55;;;;;;;;;;;;;;;;;;5076576;28;20035;-76
2022/06/09 12:45:35;;;;;;;2.08;1.05;;;;;;;;;;5078456;28;19916;-76
2022/06/09 12:48:10;;;;;;;2.80;1.10;;;;;;;;;;5086342;28;20035;-76
2022/06/09 12:50:46;;;;;;;5.43;1.50;;;;;;;;;;5074903;28;20028;-76
2022/06/09 12:53:19;;;;;;;4.50;1.48;;;;;;;;;;5079754;28;20021;-76
2022/06/09 12:56:00;;;;;;;4.38;1.45;;;;;;;;;;5084501;28;20518;-76
2022/06/09 12:58:36;;;;;;;3.08;1.45;;;;;;;;;;5048898;28;20044;-78
2022/06/09 13:01:09;;;;;;;5.50;1.50;;;;;;;;;;5049615;28;20025;-78
2022/06/09 13:03:42;;;;;;;3.47;1.42;;;;;;;;;;5068722;28;20058;-78
2022/06/09 13:06:22;;;;;;;3.90;1.60;;;;;;;;;;5068029;28;20029;-77
2022/06/09 13:08:54;;;;;;;6.45;1.45;;;;;;;;;;5065389;28;20033;-88
2022/06/09 13:14:13;;;;;;;6.47;1.75;;;;;;;;;;5069973;28;20043;-78
2022/06/09 13:16:45;;;;;;;3.25;1.58;;;;;;;;;;5074270;28;20386;-76
2022/06/09 13:19:13;;;;;;;5.50;1.83;;;;;;;;;;5074235;28;20027;-76
2022/06/09 13:21:42;;;;;;;6.15;2.10;;;;;;;;;;5072666;28;20051;-76
2022/06/09 13:24:17;;;;;;;5.05;1.77;;;;;;;;;;5071700;28;20029;-80
2022/06/09 13:26:45;;;;;;;5.97;1.80;;;;;;;;;;5067095;28;20028;-78
2022/06/09 13:29:22;;;;;;;5.57;1.65;;;;;;;;;;5070016;28;20016;-81
2022/06/09 13:32:09;;;;;;;5.38;1.80;;;;;;;;;;5069570;28;20532;-83
2022/06/09 13:34:41;;;;;;;9.70;2.20;;;;;;;;;;5060388;28;20020;-81
2022/06/09 13:37:21;;;;;;;5.45;1.75;;;;;;;;;;5073671;28;20047;-76
2022/06/09 13:40:09;;;;;;;6.55;2.28;;;;;;;;;;5063265;28;20418;-90
2022/06/09 13:42:47;;;;;;;5.68;2.00;;;;;;;;;;5074694;28;20036;-80
2022/06/09 13:45:19;;;;;;;8.00;2.00;;;;;;;;;;5083062;28;20047;-84
2022/06/09 13:48:05;;;;;;;5.97;2.08;;;;;;;;;;5091560;28;20027;-85
2022/06/09 13:50:38;;;;;;;6.85;2.17;;;;;;;;;;5088055;28;20036;-84
2022/06/09 13:53:27;;;;;;;6.00;2.10;;;;;;;;;;5073565;28;20584;-88
2022/06/09 13:55:54;;;;;;;3.20;1.40;;;;;;;;;;5064014;28;20040;-86
2022/06/09 13:58:21;;;;;;;3.33;1.50;;;;;;;;;;5068605;28;20020;-81
2022/06/09 14:00:56;;;;;;;5.45;1.75;;;;;;;;;;5071045;28;20024;-82
2022/06/09 14:03:27;;;;;;;3.63;1.65;;;;;;;;;;5078204;28;20040;-78
2022/06/09 14:05:58;;;;;;;8.65;1.98;;;;;;;;;;5069571;28;20028;-86
2022/06/09 14:08:25;;;;;;;6.00;1.75;;;;;;;;;;5064256;28;20503;-83
2022/06/09 14:10:52;;;;;;;5.30;2.08;;;;;;;;;;5079632;28;20028;-82
2022/06/09 14:13:19;;;;;;;6.80;1.90;;;;;;;;;;5091201;28;20054;-79
2022/06/09 14:15:46;;;;;;;7.30;1.88;;;;;;;;;;5068492;28;20031;-82
2022/06/09 14:18:22;;;;;;;5.70;1.50;;;;;;;;;;5067939;28;20028;-82
2022/06/09 14:20:49;;;;;;;3.00;1.13;;;;;;;;;;5063272;28;20028;-88
2022/06/09 14:23:28;;;;;;;2.78;1.23;;;;;;;;;;5065334;28;20039;-84
2022/06/09 14:26:19;;;;;;;5.60;1.50;;;;;;;;;;5069729;28;20031;-86
2022/06/09 14:28:46;;;;;;;2.53;1.20;;;;;;;;;;5072966;28;20505;-83
2022/06/09 14:31:13;;;;;;;2.88;1.05;;;;;;;;;;5065880;28;20495;-82
2022/06/09 14:33:40;;;;;;;1.73;1.25;;;;;;;;;;5062760;28;20029;-79
2022/06/09 14:36:07;;;;;;;1.52;0.90;;;;;;;;;;5073677;28;20033;-79
2022/06/09 14:38:33;;;;;;;1.55;0.90;;;;;;;;;;5066477;28;20124;-87
2022/06/09 14:40:59;;;;;;;2.05;1.00;;;;;;;;;;5068746;28;20039;-89
2022/06/09 14:43:24;;;;;;;3.88;1.45;;;;;;;;;;5071939;28;20028;-87
2022/06/09 14:45:56;;;;;;;2.67;1.17;;;;;;;;;;5068944;28;20550;-89
2022/06/09 14:48:24;;;;;;;5.43;1.58;;;;;;;;;;5063625;28;20039;-88
2022/06/09 14:50:52;;;;;;;5.20;1.67;;;;;;;;;;5062331;28;20037;-86
2022/06/09 14:53:19;;;;;;;4.45;1.35;;;;;;;;;;5067660;28;20029;-87
2022/06/09 14:55:46;;;;;;;4.97;1.60;;;;;;;;;;5079128;28;20029;-84
2022/06/09 14:58:15;;;;;;;5.45;1.50;;;;;;;;;;5075945;28;20021;-81
2022/06/09 15:00:41;;;;;;;4.55;1.58;;;;;;;;;;5075931;28;20027;-80
2022/06/09 15:03:09;;;;;;;8.05;1.90;;;;;;;;;;5066444;28;20036;-81
2022/06/09 15:05:35;;;;;;;5.68;2.00;;;;;;;;;;5083271;28;20021;-83
2022/06/09 15:08:01;;;;;;;4.32;1.45;;;;;;;;;;5078713;28;20024;-83
2022/06/09 15:10:34;;;;;;;4.40;1.63;;;;;;;;;;5081982;28;20028;-76
2022/06/09 15:13:00;;;;;;;6.13;1.80;;;;;;;;;;5067964;28;20039;-76
2022/06/09 15:15:27;;;;;;;7.88;1.77;;;;;;;;;;5072220;28;20025;-76
2022/06/09 15:17:53;;;;;;;4.57;1.80;;;;;;;;;;5071023;28;20024;-79
2022/06/09 15:20:24;;;;;;;5.93;1.75;;;;;;;;;;5067781;28;20040;-83
2022/06/09 15:22:50;;;;;;;9.32;2.33;;;;;;;;;;5064138;28;20040;-82
2022/06/09 15:25:16;;;;;;;4.03;1.80;;;;;;;;;;5065750;28;20392;-85
2022/06/09 15:27:43;;;;;;;6.95;2.13;;;;;;;;;;5066349;28;20596;-85
2022/06/09 15:30:15;;;;;;;7.35;2.00;;;;;;;;;;5073495;28;20035;-88
2022/06/09 15:32:41;;;;;;;6.05;1.92;;;;;;;;;;5071794;28;20024;-85
2022/06/09 15:35:07;;;;;;;6.82;2.10;;;;;;;;;;5064786;28;20124;-82
2022/06/09 15:37:33;;;;;;;6.43;2.00;;;;;;;;;;5067494;28;20036;-88
2022/06/09 15:39:59;;;;;;;6.40;1.95;;;;;;;;;;5066267;28;20024;-91
2022/06/09 15:42:25;;;;;;;6.78;1.92;;;;;;;;;;5071419;28;20059;-82
2022/06/09 15:44:51;;;;;;;10.57;1.80;;;;;;;;;;5065126;28;20075;-78
2022/06/09 15:47:17;;;;;;;4.30;1.55;;;;;;;;;;5062141;28;20500;-78
2022/06/09 15:49:43;;;;;;;6.43;2.08;;;;;;;;;;5063849;28;20116;-80
2022/06/09 15:52:08;;;;;;;5.07;1.85;;;;;;;;;;5066879;28;20056;-77
2022/06/09 15:54:34;;;;;;;3.80;1.52;;;;;;;;;;5082630;28;20516;-80
2022/06/09 15:57:00;;;;;;;4.10;1.70;;;;;;;;;;5079950;28;20066;-73
2022/06/09 15:59:27;;;;;;;3.70;1.60;;;;;;;;;;5076481;28;20029;-73
2022/06/09 16:02:08;;;;;;;64.65;16.00;;;;;;;;;;5086342;28;20036;-72
2022/06/09 16:04:39;;;;;;;14.25;4.07;;;;;;;;;;5069522;28;20496;-72
2022/06/09 16:07:06;;;;;;;;;;;;;;;;;;5067744;28;20290;-73
2022/06/09 16:09:31;;;;;;;5.40;1.52;;;;;;;;;;5067261;28;19909;-73
2022/06/09 16:11:57;;;;;;;3.13;1.50;;;;;;;;;;5067320;28;20457;-73
2022/06/09 16:14:23;;;;;;;4.20;1.50;;;;;;;;;;5067615;28;20220;-74
2022/06/09 16:16:49;;;;;;;5.57;1.90;;;;;;;;;;5066027;28;20075;-73
2022/06/09 16:19:15;;;;;;;4.32;1.60;;;;;;;;;;5068741;28;20482;-73
2022/06/09 16:21:41;;;;;;;4.13;1.50;;;;;;;;;;5068820;28;20041;-73
2022/06/09 16:24:07;;;;;;;3.95;1.50;;;;;;;;;;5068658;28;20477;-73
2022/06/09 16:26:33;;;;;;;5.85;1.67;;;;;;;;;;5066680;28;20032;-73
2022/06/09 16:28:59;;;;;;;4.38;1.80;;;;;;;;;;5068115;28;20028;-73
2022/06/09 16:31:25;;;;;;;7.00;2.08;;;;;;;;;;5068104;28;20056;-74
2022/06/09 16:33:51;;;;;;;3.75;1.60;;;;;;;;;;5068171;28;20031;-73
2022/06/09 16:36:20;;;;;;;7.22;1.50;;;;;;;;;;5068015;28;20136;-74
2022/06/09 16:38:46;;;;;;;5.50;1.70;;;;;;;;;;5068607;28;20036;-73
2022/06/09 16:41:13;;;;;;;5.45;1.67;;;;;;;;;;5069851;28;20021;-73
2022/06/09 16:43:40;;;;;;;4.03;1.63;;;;;;;;;;5069754;28;20389;-73
2022/06/09 16:46:07;;;;;;;3.90;1.60;;;;;;;;;;5067883;28;20032;-73
2022/06/09 16:48:33;;;;;;;4.95;1.67;;;;;;;;;;5069698;28;20029;-73
2022/06/09 16:50:59;;;;;;;4.72;1.70;;;;;;;;;;5073112;28;20028;-73
2022/06/09 16:53:25;;;;;;;4.93;1.90;;;;;;;;;;5073787;28;20046;-74
2022/06/09 16:55:51;;;;;;;4.97;1.83;;;;;;;;;;5068174;28;20187;-73
2022/06/09 16:58:17;;;;;;;3.22;1.63;;;;;;;;;;5053580;28;20025;-73
2022/06/09 17:00:44;;;;;;;8.35;1.85;;;;;;;;;;5053487;28;20488;-73
2022/06/09 17:03:14;;;;;;;5.63;1.90;;;;;;;;;;5053556;28;20040;-73
2022/06/09 17:05:46;;;;;;;3.60;1.70;;;;;;;;;;5053320;28;20043;-74
2022/06/09 17:08:12;;;;;;;5.13;1.92;;;;;;;;;;5053432;28;20032;-74
2022/06/09 17:10:40;;;;;;;7.10;2.00;;;;;;;;;;5053392;28;20029;-74
2022/06/09 17:13:07;;;;;;;5.80;1.88;;;;;;;;;;5051857;28;20510;-73
2022/06/09 17:15:35;;;;;;;5.43;1.75;;;;;;;;;;5053449;28;20040;-73
2022/06/09 17:18:01;;;;;;;6.90;1.80;;;;;;;;;;5053469;28;20390;-73
2022/06/09 17:20:27;;;;;;;6.93;2.13;;;;;;;;;;5051624;28;20060;-74
2022/06/09 17:22:53;;;;;;;4.15;1.90;;;;;;;;;;5051978;28;20498;-73
2022/06/09 17:25:19;;;;;;;7.80;2.40;;;;;;;;;;5053007;28;20079;-74
2022/06/09 17:27:45;;;;;;;8.35;2.50;;;;;;;;;;5051504;28;20498;-73
2022/06/09 17:30:13;;;;;;;7.05;1.98;;;;;;;;;;5053281;28;20029;-73
2022/06/09 17:32:40;;;;;;;6.20;1.92;;;;;;;;;;5053339;28;20028;-73
2022/06/09 17:35:06;;;;;;;9.63;2.45;;;;;;;;;;5055246;28;20378;-73
2022/06/09 17:37:33;;;;;;;10.82;2.20;;;;;;;;;;5053106;28;20390;-73
2022/06/09 17:39:59;;;;;;;9.70;3.20;;;;;;;;;;5053124;28;20025;-73
2022/06/09 17:42:25;;;;;;;7.15;3.40;;;;;;;;;;5053288;28;20380;-74
2022/06/09 17:44:51;;;;;;;7.65;2.70;;;;;;;;;;5052874;28;20029;-74
2022/06/09 17:47:17;;;;;;;9.20;2.40;;;;;;;;;;5053453;28;20032;-74
2022/06/09 17:49:43;;;;;;;5.72;2.20;;;;;;;;;;5053050;28;20017;-74
2022/06/09 17:52:09;;;;;;;5.50;2.45;;;;;;;;;;5052887;28;20033;-73
2022/06/09 17:54:35;;;;;;;9.15;2.50;;;;;;;;;;5052637;28;20040;-73
2022/06/09 17:57:01;;;;;;;7.78;2.70;;;;;;;;;;5052252;28;20025;-67
2022/06/09 17:59:27;;;;;;;8.48;2.50;;;;;;;;;;5066971;28;20114;-64
2022/06/09 18:01:53;;;;;;;6.18;2.30;;;;;;;;;;5064357;28;20033;-64
2022/06/09 18:04:19;;;;;;;7.35;2.40;;;;;;;;;;5064078;28;20056;-64
2022/06/09 18:06:45;;;;;;;5.28;2.17;;;;;;;;;;5053751;28;20381;-64
2022/06/09 18:09:11;;;;;;;6.43;2.40;;;;;;;;;;5064078;28;20032;-64
2022/06/09 18:11:37;;;;;;;9.20;4.97;;;;;;;;;;5072053;28;20059;-64
2022/06/09 18:14:03;;;;;;;28.35;20.23;;;;;;;;;;5072011;28;20036;-71
2022/06/09 18:16:29;;;;;;;9.45;2.58;;;;;;;;;;5072067;28;20056;-70
2022/06/09 18:18:55;;;;;;;11.90;5.22;;;;;;;;;;5072210;28;20495;-73
2022/06/09 18:21:22;;;;;;;8.93;2.72;;;;;;;;;;5064337;28;20036;-74
2022/06/09 18:23:48;;;;;;;7.10;2.30;;;;;;;;;;5070659;28;20047;-74
2022/06/09 18:26:15;;;;;;;5.63;2.03;;;;;;;;;;5071852;28;20074;-73
2022/06/09 18:28:41;;;;;;;6.43;2.00;;;;;;;;;;5059725;28;20040;-64
2022/06/09 18:31:07;;;;;;;4.60;1.90;;;;;;;;;;5064964;28;20026;-64
2022/06/09 18:33:34;;;;;;;6.15;2.10;;;;;;;;;;5069587;28;20033;-64
2022/06/09 18:36:00;;;;;;;4.50;1.92;;;;;;;;;;5068946;28;20032;-64
2022/06/09 18:38:27;;;;;;;6.30;2.25;;;;;;;;;;5071132;28;20033;-64
2022/06/09 18:40:53;;;;;;;5.78;2.10;;;;;;;;;;5079200;28;20051;-64
2022/06/09 18:43:21;;;;;;;6.05;2.20;;;;;;;;;;5079797;28;20052;-64
2022/06/09 18:45:50;;;;;;;6.57;2.35;;;;;;;;;;5059073;28;20028;-65
2022/06/09 18:48:20;;;;;;;8.57;2.50;;;;;;;;;;5049531;28;20036;-64
2022/06/09 18:50:47;;;;;;;5.78;2.30;;;;;;;;;;5048980;28;20045;-64
2022/06/09 18:53:13;;;;;;;7.40;2.53;;;;;;;;;;5049363;28;20029;-64
2022/06/09 18:55:40;;;;;;;4.65;2.28;;;;;;;;;;5048946;28;20044;-64
2022/06/09 18:58:08;;;;;;;6.45;2.03;;;;;;;;;;5059271;28;20845;-64
2022/06/09 19:00:35;;;;;;;7.07;2.55;;;;;;;;;;5067414;28;20052;-63
2022/06/09 19:03:03;;;;;;;4.80;2.30;;;;;;;;;;5064325;28;20466;-63
2022/06/09 19:05:29;;;;;;;7.25;2.53;;;;;;;;;;5059099;28;20055;-66
2022/06/09 19:07:57;;;;;;;9.75;2.83;;;;;;;;;;5066559;28;20052;-65
2022/06/09 19:10:26;;;;;;;4.78;2.30;;;;;;;;;;5067509;28;20025;-63
2022/06/09 19:12:52;;;;;;;7.00;2.50;;;;;;;;;;5065354;28;20410;-64
2022/06/09 19:15:18;;;;;;;5.70;2.47;;;;;;;;;;5088224;28;20031;-64
2022/06/09 19:17:45;;;;;;;7.45;2.38;;;;;;;;;;5088709;28;20484;-65
2022/06/09 19:20:15;;;;;;;10.75;4.88;;;;;;;;;;5088750;28;20489;-65
2022/06/09 19:22:41;;;;;;;21.25;12.82;;;;;;;;;;5088947;28;20040;-64
2022/06/09 19:25:07;;;;;;;6.63;2.95;;;;;;;;;;5068844;28;20096;-74
2022/06/09 19:27:33;;;;;;;14.65;5.47;;;;;;;;;;5046510;28;20040;-74
2022/06/09 19:29:59;;;;;;;6.65;2.80;;;;;;;;;;5048335;28;20119;-75
2022/06/09 19:32:25;;;;;;;5.30;2.20;;;;;;;;;;5048336;28;20116;-74
2022/06/09 19:34:51;;;;;;;6.13;2.47;;;;;;;;;;5066432;28;20036;-74
2022/06/09 19:37:25;;;;;;;5.38;2.25;;;;;;;;;;5068415;28;20028;-74
2022/06/09 19:39:52;;;;;;;6.03;2.17;;;;;;;;;;5067985;28;20035;-75
2022/06/09 19:42:18;;;;;;;4.05;2.13;;;;;;;;;;5053532;28;20029;-76
2022/06/09 19:44:44;;;;;;;5.88;2.22;;;;;;;;;;5081908;28;20039;-75
2022/06/09 19:47:17;;;;;;;6.50;2.40;;;;;;;;;;5065108;28;20041;-74
2022/06/09 19:49:46;;;;;;;4.88;2.15;;;;;;;;;;5053554;28;20043;-75
2022/06/09 19:52:15;;;;;;;6.10;2.50;;;;;;;;;;5048484;28;20083;-75
2022/06/09 19:54:42;;;;;;;4.78;2.33;;;;;;;;;;5047910;28;20048;-74
2022/06/09 19:57:16;;;;;;;5.32;2.28;;;;;;;;;;5048207;28;20028;-73
2022/06/09 19:59:42;;;;;;;8.23;2.25;;;;;;;;;;5063985;28;20041;-75
2022/06/09 20:02:12;;;;;;;3.83;2.10;;;;;;;;;;5064233;28;20029;-75
2022/06/09 20:04:39;;;;;;;5.95;2.28;;;;;;;;;;5060245;28;20478;-76
2022/06/09 20:07:05;;;;;;;5.78;2.45;;;;;;;;;;5068072;28;20036;-75
2022/06/09 20:09:31;;;;;;;5.00;2.28;;;;;;;;;;5088572;28;20040;-75
2022/06/09 20:11:57;;;;;;;6.65;2.40;;;;;;;;;;5099261;28;20012;-73
2022/06/09 20:14:22;;;;;;;44.80;30.63;;;;;;;;;;5079457;28;20394;-74
2022/06/09 20:16:48;;;;;;;17.13;12.25;;;;;;;;;;5070981;28;20024;-74
2022/06/09 20:19:14;;;;;;;11.02;5.88;;;;;;;;;;5063841;28;20039;-76
2022/06/09 20:21:40;;;;;;;5.60;2.70;;;;;;;;;;5054518;28;20068;-76
2022/06/09 20:24:06;;;;;;;6.35;2.30;;;;;;;;;;5053091;28;20405;-77
2022/06/09 20:26:32;;;;;;;4.93;2.33;;;;;;;;;;5046306;28;20048;-76
2022/06/09 20:28:58;;;;;;;6.18;2.55;;;;;;;;;;5047932;28;20115;-74
2022/06/09 20:31:28;;;;;;;7.75;2.40;;;;;;;;;;5048540;28;20163;-74
2022/06/09 20:33:57;;;;;;;6.10;2.45;;;;;;;;;;5047857;28;20017;-74
2022/06/09 20:36:32;;;;;;;9.52;2.72;;;;;;;;;;5047543;28;20041;-73
2022/06/09 20:38:59;;;;;;;8.07;2.60;;;;;;;;;;5047317;28;20036;-73
2022/06/09 20:41:25;;;;;;;5.97;2.30;;;;;;;;;;5047741;28;20059;-73
2022/06/09 20:43:53;;;;;;;5.68;2.38;;;;;;;;;;5047410;28;20037;-73
2022/06/09 20:46:37;;;;;;;6.80;2.63;;;;;;;;;;5047238;28;20044;-74
2022/06/09 20:49:15;;;;;;;7.07;2.70;;;;;;;;;;5045214;28;20041;-75
2022/06/09 20:51:41;;;;;;;5.80;2.80;;;;;;;;;;5057952;28;20036;-71
2022/06/09 20:54:09;;;;;;;7.30;2.67;;;;;;;;;;5069709;28;20113;-72
2022/06/09 20:56:42;;;;;;;5.47;2.70;;;;;;;;;;5060510;28;20037;-71
2022/06/09 20:59:14;;;;;;;5.22;2.50;;;;;;;;;;5052519;28;20033;-72
2022/06/09 21:01:40;;;;;;;6.70;2.60;;;;;;;;;;5062825;28;20033;-71
2022/06/09 21:04:08;;;;;;;5.85;3.10;;;;;;;;;;5049645;28;20036;-72
2022/06/09 21:06:34;;;;;;;5.60;2.50;;;;;;;;;;5049377;28;20032;-72
2022/06/09 21:09:00;;;;;;;7.40;2.40;;;;;;;;;;5049554;28;20518;-72
2022/06/09 21:19:39;;;;;;;7.40;2.75;;;;;;;;;;5051470;28;20033;-72
2022/06/09 21:22:05;;;;;;;8.35;2.80;;;;;;;;;;5049307;28;20044;-72
2022/06/09 21:24:31;;;;;;;6.55;2.70;;;;;;;;;;5049250;28;20463;-72
2022/06/09 21:26:57;;;;;;;4.55;2.35;;;;;;;;;;5049455;28;20527;-72
2022/06/09 21:29:24;;;;;;;5.65;2.63;;;;;;;;;;5048074;28;20044;-72
2022/06/09 21:31:50;;;;;;;7.03;2.60;;;;;;;;;;5049511;28;20184;-72
2022/06/09 21:34:16;;;;;;;4.90;2.47;;;;;;;;;;5049312;28;20112;-72
2022/06/09 21:36:42;;;;;;;7.03;2.55;;;;;;;;;;5051851;28;20032;-72
2022/06/09 21:39:08;;;;;;;6.72;3.05;;;;;;;;;;5051911;28;20041;-72
2022/06/09 21:41:34;;;;;;;7.40;2.72;;;;;;;;;;5052999;28;20373;-72
2022/06/09 21:44:00;;;;;;;6.47;2.70;;;;;;;;;;5052954;28;20044;-72
2022/06/09 21:46:26;;;;;;;5.47;2.55;;;;;;;;;;5052903;28;20416;-72
2022/06/09 21:48:52;;;;;;;7.20;2.85;;;;;;;;;;5055421;28;20053;-72
2022/06/09 21:51:18;;;;;;;5.65;2.53;;;;;;;;;;5052943;28;20174;-72
2022/06/09 21:53:44;;;;;;;6.70;2.97;;;;;;;;;;5053183;28;20021;-72
2022/06/09 21:56:10;;;;;;;15.68;9.05;;;;;;;;;;5052732;28;20052;-71
2022/06/09 21:58:36;;;;;;;16.92;10.00;;;;;;;;;;5052804;28;20044;-72
2022/06/09 22:01:02;;;;;;;12.93;7.97;;;;;;;;;;5052855;28;20029;-71
2022/06/09 22:03:28;;;;;;;10.57;4.22;;;;;;;;;;5052884;28;20044;-71
2022/06/09 22:05:55;;;;;;;13.85;4.78;;;;;;;;;;5052551;28;20025;-71
2022/06/09 22:08:21;;;;;;;9.77;4.40;;;;;;;;;;5052616;28;20390;-71
2022/06/09 22:10:48;;;;;;;8.60;3.55;;;;;;;;;;5071201;28;20043;-71
2022/06/09 22:13:15;;;;;;;6.13;3.15;;;;;;;;;;5072659;28;20024;-71
2022/06/09 22:15:41;;;;;;;9.88;3.53;;;;;;;;;;5072477;28;20031;-71
2022/06/09 22:18:08;;;;;;;6.82;3.13;;;;;;;;;;5072548;28;20028;-72
2022/06/09 22:20:37;;;;;;;5.97;2.92;;;;;;;;;;5072335;28;20033;-70
2022/06/09 22:23:03;;;;;;;8.90;3.10;;;;;;;;;;5072377;28;20032;-71
2022/06/09 22:25:30;;;;;;;7.22;2.80;;;;;;;;;;5070241;28;20037;-71
2022/06/09 22:27:56;;;;;;;6.43;3.28;;;;;;;;;;5071187;28;20028;-73
2022/06/09 22:30:24;;;;;;;6.65;2.90;;;;;;;;;;5071401;28;20029;-72
2022/06/09 22:32:51;;;;;;;5.93;3.25;;;;;;;;;;5071240;28;20459;-72
2022/06/09 22:35:17;;;;;;;8.40;2.78;;;;;;;;;;5069585;28;20536;-72
2022/06/09 22:37:43;;;;;;;6.85;3.17;;;;;;;;;;5071103;28;20036;-72
2022/06/09 22:40:16;;;;;;;5.18;3.03;;;;;;;;;;5071049;28;20033;-72
2022/06/09 22:42:42;;;;;;;5.95;3.00;;;;;;;;;;5072075;28;20500;-70
2022/06/09 22:45:10;;;;;;;6.65;3.20;;;;;;;;;;5071701;28;20044;-71
2022/06/09 22:47:37;;;;;;;6.80;3.35;;;;;;;;;;5071729;28;20040;-71
2022/06/09 22:50:04;;;;;;;7.15;3.00;;;;;;;;;;5070547;28;20028;-71
2022/06/09 22:52:29;;;;;;;6.43;3.10;;;;;;;;;;5070249;28;20032;-71
2022/06/09 22:57:40;;;;;;;6.25;3.00;;;;;;;;;;5071092;28;20028;-71
2022/06/09 23:00:34;;;;;;;6.43;2.92;;;;;;;;;;5053616;28;20024;-71
2022/06/09 23:03:01;;;;;;;8.27;3.05;;;;;;;;;;5049940;28;20045;-71
2022/06/09 23:05:27;;;;;;;8.93;3.22;;;;;;;;;;5049601;28;20394;-71
2022/06/09 23:07:54;;;;;;;5.60;2.90;;;;;;;;;;5049657;28;20033;-71
2022/06/09 23:10:24;;;;;;;7.28;3.45;;;;;;;;;;5049559;28;20036;-71
2022/06/09 23:12:51;;;;;;;7.53;3.45;;;;;;;;;;5049614;28;20048;-71
2022/06/09 23:15:17;;;;;;;6.97;3.40;;;;;;;;;;5049503;28;20033;-72
2022/06/09 23:17:44;;;;;;;11.23;3.70;;;;;;;;;;5050179;28;20370;-70
2022/06/09 23:20:13;;;;;;;7.13;3.90;;;;;;;;;;5048937;28;20037;-70
2022/06/09 23:22:40;;;;;;;10.13;4.07;;;;;;;;;;5050979;28;20051;-72
2022/06/09 23:25:07;;;;;;;6.35;3.67;;;;;;;;;;5050642;28;20024;-70
2022/06/09 23:27:33;;;;;;;7.22;3.70;;;;;;;;;;5050693;28;20029;-70
2022/06/09 23:29:59;;;;;;;7.65;4.00;;;;;;;;;;5050905;28;20029;-71
2022/06/09 23:32:25;;;;;;;8.55;4.18;;;;;;;;;;5050793;28;20031;-71
2022/06/09 23:34:51;;;;;;;8.13;3.90;;;;;;;;;;5049010;28;20485;-71
2022/06/09 23:37:21;;;;;;;7.22;3.83;;;;;;;;;;5050732;28;20055;-71
2022/06/09 23:39:47;;;;;;;9.37;3.80;;;;;;;;;;5050713;28;20629;-72
2022/06/09 23:42:13;;;;;;;8.77;3.90;;;;;;;;;;5050597;28;20115;-71
2022/06/09 23:45:39;;;;;;;10.90;3.95;;;;;;;;;;5050401;28;20367;-72
2022/06/09 23:47:34;;;;;;;7.30;3.70;;;;;;;;;;5045446;28;20064;-71
2022/06/09 23:50:00;;;;;;;6.45;3.20;;;;;;;;;;5053022;28;20028;-71
2022/06/09 23:52:27;;;;;;;9.65;3.72;;;;;;;;;;5050621;28;20036;-72
2022/06/09 23:54:53;;;;;;;7.03;3.30;;;;;;;;;;5050232;28;20156;-72
2022/06/09 23:57:19;;;;;;;7.93;3.78;;;;;;;;;;5050401;28;20032;-72
2022/06/09 23:59:45;;;;;;;6.90;3.33;;;;;;;;;;5050021;28;20031;-71
